KXNA/XNA METAR and TAF weather

Enter ICAO airport designator
Station Type Date Time Source
KXNA METAR 2021/01/16 02:53 UTC NOAA

KXNA 160253Z 30017G28KT 9SM -SN FEW020 BKN030 OVC080 00/M04 A2986 RMK AO2 PK WND 30031/0157 SLP120 P0000 60000 T00001039 51002


Station Type Date Time Source
KXNA Decoded METAR 2021/01/16 02:53 UTC NOAA

NORTHWEST ARKANSAS REGIONAL, AR, United States (KXNA) 36-17N 94-18W
Jan 15, 2021 - 09:53 PM EST / 2021.01.16 0253 UTC
Wind: from the WNW (300 degrees) at 20 MPH (17 KT) gusting to 32 MPH (28 KT):0
Visibility: 9 mile(s):0
Sky conditions: overcast
Weather: light snow
Precipitation last hour: A trace
Temperature: 32.0 F (0.0 C)
Windchill: 19 F (-7 C):1
Dew Point: 25.0 F (-3.9 C)
Relative Humidity: 74%
Pressure (altimeter): 29.86 in. Hg (1011 hPa)
Pressure tendency: 0.01 inches (0.2 hPa) higher than three hours ago
ob: KXNA 160253Z 30017G28KT 9SM -SN FEW020 BKN030 OVC080 00/M04 A2986 RMK AO2 PK WND 30031/0157 SLP120 P0000 60000 T00001039 51002
cycle: 3

Station Type Date Time Source
KXNA TAF 2021/01/15 22:51 UTC NOAA

TAF
AMD KXNA 152149Z 1522/1618 31018G34KT 6SM -SN BKN040
TEMPO 1522/1524 2SM -SN BKN025
FM160000 30017G30KT P6SM OVC025
FM160600 30012KT P6SM BKN020

Example: see airport list